Time;durP1;ratioP1;P1;durP2;ratioP2;P2;SDS_P1;SDS_P2;PMS_P1;PMS_P2;Temp;Humidity;BMP_temperature;BMP_pressure;BME280_temperature;BME280_humidity;BME280_pressure;Samples;Min_cycle;Max_cycle;Signal;HPM_P1;HPM_P2
2021/09/03 00:04:06;;;;;;;21.15;11.73;;;;;;;13.29;81.17;102359.63;10140571;28;20189;-68
2021/09/03 00:09:02;;;;;;;29.40;14.77;;;;;;;13.28;81.20;102347.00;10129527;28;20120;-68
2021/09/03 00:13:59;;;;;;;23.60;12.82;;;;;;;13.23;81.52;102345.94;10135023;28;20038;-69
2021/09/03 00:18:55;;;;;;;23.60;12.43;;;;;;;13.23;81.35;102350.59;10135059;28;20078;-69
2021/09/03 00:23:51;;;;;;;22.10;12.10;;;;;;;13.19;81.75;102339.38;10144856;28;20065;-69
2021/09/03 00:28:48;;;;;;;20.77;10.95;;;;;;;13.17;81.56;102336.13;10141543;28;20133;-69
2021/09/03 00:33:44;;;;;;;21.88;12.77;;;;;;;13.13;81.87;102326.81;10146727;28;20035;-68
2021/09/03 00:38:41;;;;;;;19.80;11.80;;;;;;;13.12;81.88;102316.16;10139190;28;20136;-69
2021/09/03 00:43:38;;;;;;;21.92;11.68;;;;;;;13.07;82.04;102314.28;10131483;28;20065;-68
2021/09/03 00:48:34;;;;;;;24.95;12.93;;;;;;;13.05;81.89;102311.03;10138732;28;20072;-68
2021/09/03 00:53:33;;;;;;;25.08;12.82;;;;;;;13.01;82.07;102315.47;10143048;28;20074;-67
2021/09/03 00:58:30;;;;;;;22.65;12.88;;;;;;;12.98;82.45;102307.84;10140067;28;20137;-67
2021/09/03 01:03:26;;;;;;;22.08;12.57;;;;;;;12.91;82.56;102304.63;10137590;28;20097;-68
2021/09/03 01:08:23;;;;;;;22.92;12.13;;;;;;;12.89;82.80;102301.38;10135750;28;20047;-68
2021/09/03 01:13:19;;;;;;;20.13;11.68;;;;;;;12.87;83.07;102293.41;10132111;28;20073;-68
2021/09/03 01:18:16;;;;;;;18.52;10.77;;;;;;;12.88;83.24;102288.72;10140779;28;20077;-68
2021/09/03 01:23:13;;;;;;;23.10;11.85;;;;;;;12.90;83.51;102286.50;10139867;28;20062;-69
2021/09/03 01:28:10;;;;;;;19.23;9.95;;;;;;;12.90;83.54;102273.59;10143574;28;20125;-69
2021/09/03 01:33:07;;;;;;;18.92;11.13;;;;;;;12.89;83.68;102276.66;10143350;28;20042;-69
2021/09/03 01:38:06;;;;;;;21.38;10.98;;;;;;;12.88;83.48;102266.78;10146231;28;20045;-69
2021/09/03 01:43:03;;;;;;;18.85;10.93;;;;;;;12.85;84.14;102258.00;10150575;28;20046;-68
2021/09/03 01:47:59;;;;;;;21.48;10.88;;;;;;;12.91;84.23;102260.72;10142610;28;20664;-68
2021/09/03 01:52:56;;;;;;;24.85;11.38;;;;;;;12.84;84.75;102256.41;10144503;28;20129;-69
2021/09/03 01:57:52;;;;;;;19.55;10.70;;;;;;;12.91;84.93;102252.47;10142804;28;20069;-69
2021/09/03 02:02:49;;;;;;;22.63;10.50;;;;;;;13.01;85.18;102249.56;10149292;28;20042;-69
2021/09/03 02:07:45;;;;;;;20.88;9.70;;;;;;;13.06;85.04;102246.75;10150007;28;20170;-69
2021/09/03 02:12:42;;;;;;;24.52;11.00;;;;;;;13.08;85.13;102236.28;10154475;28;20069;-69
2021/09/03 02:17:38;;;;;;;18.75;10.52;;;;;;;13.10;85.07;102231.31;10148606;28;20074;-69
2021/09/03 02:22:35;;;;;;;21.27;10.00;;;;;;;13.09;85.20;102232.44;10143571;28;20070;-69
2021/09/03 02:27:31;;;;;;;21.92;11.10;;;;;;;13.10;85.40;102236.81;10138222;28;20098;-68
2021/09/03 02:32:28;;;;;;;18.65;10.93;;;;;;;13.08;85.26;102229.97;10149057;28;20078;-68
2021/09/03 02:37:24;;;;;;;21.67;10.20;;;;;;;13.07;85.43;102222.88;10150811;28;20452;-68
2021/09/03 02:42:21;;;;;;;16.65;10.05;;;;;;;13.13;85.21;102225.22;10140051;28;20386;-67
2021/09/03 02:47:17;;;;;;;21.52;10.02;;;;;;;13.17;85.10;102220.75;10142466;28;20141;-67
2021/09/03 02:52:14;;;;;;;25.20;10.20;;;;;;;13.19;85.21;102213.03;10143639;28;20073;-66
2021/09/03 02:57:10;;;;;;;23.35;10.05;;;;;;;13.28;84.76;102212.41;10139239;28;20089;-67
2021/09/03 03:02:07;;;;;;;20.88;9.10;;;;;;;13.26;85.12;102202.50;10143306;28;20142;-67
2021/09/03 03:07:03;;;;;;;17.63;9.60;;;;;;;13.28;84.92;102204.16;10149120;28;20408;-67
2021/09/03 03:12:00;;;;;;;20.27;9.68;;;;;;;13.30;84.62;102207.41;10140943;28;20073;-68
2021/09/03 03:16:56;;;;;;;20.88;10.30;;;;;;;13.41;84.45;102208.88;10147416;28;20046;-68
2021/09/03 03:21:54;;;;;;;21.23;11.18;;;;;;;13.39;84.49;102195.47;10147491;28;20130;-67
2021/09/03 03:26:51;;;;;;;23.08;10.02;;;;;;;13.42;84.50;102203.09;10142416;28;20130;-68
2021/09/03 03:31:52;;;;;;;21.77;10.35;;;;;;;13.44;84.15;102191.81;10147357;28;20054;-68
2021/09/03 03:36:49;;;;;;;20.08;10.40;;;;;;;13.51;84.14;102186.72;10147128;28;20042;-69
2021/09/03 03:41:45;;;;;;;20.55;10.85;;;;;;;13.56;83.53;102189.38;10142715;28;20058;-67
2021/09/03 03:46:42;;;;;;;22.05;11.18;;;;;;;13.58;83.73;102169.84;10141341;28;20046;-68
2021/09/03 03:51:38;;;;;;;21.15;11.75;;;;;;;13.61;83.97;102175.53;10138724;28;20054;-68
2021/09/03 03:56:35;;;;;;;19.92;10.70;;;;;;;13.57;83.59;102169.00;10138297;28;20101;-68
2021/09/03 04:01:32;;;;;;;24.23;13.07;;;;;;;13.62;83.66;102155.19;10143986;28;20168;-69
2021/09/03 04:06:29;;;;;;;23.63;11.85;;;;;;;13.67;83.53;102146.84;10146346;28;20052;-69
2021/09/03 04:11:25;;;;;;;21.20;11.73;;;;;;;13.68;83.75;102142.97;10142729;28;20129;-69
2021/09/03 04:16:22;;;;;;;26.52;13.18;;;;;;;13.61;84.23;102137.06;10145092;28;20074;-68
2021/09/03 04:21:18;;;;;;;23.75;12.02;;;;;;;13.70;83.94;102139.13;10143715;28;20551;-68
2021/09/03 04:26:15;;;;;;;20.95;11.93;;;;;;;13.68;84.45;102136.66;10142010;28;20491;-68
2021/09/03 04:31:11;;;;;;;22.90;13.02;;;;;;;13.67;84.56;102135.88;10136221;28;20156;-70
2021/09/03 04:36:08;;;;;;;22.83;12.50;;;;;;;13.76;84.42;102129.63;10142275;28;20105;-69
2021/09/03 04:41:04;;;;;;;23.63;11.60;;;;;;;13.78;84.43;102130.16;10125991;28;20073;-69
2021/09/03 04:46:01;;;;;;;20.48;11.65;;;;;;;13.81;84.67;102132.31;10141410;28;20132;-69
2021/09/03 04:50:57;;;;;;;20.38;11.63;;;;;;;13.84;84.40;102129.75;10139190;28;20119;-69
2021/09/03 04:55:56;;;;;;;24.13;11.68;;;;;;;13.84;84.52;102123.44;10138751;28;20064;-68
2021/09/03 05:00:52;;;;;;;21.30;11.52;;;;;;;13.89;84.88;102115.09;10147952;28;20113;-68
2021/09/03 05:05:49;;;;;;;22.92;12.25;;;;;;;13.87;84.80;102120.06;10150842;28;20104;-67
2021/09/03 05:10:46;;;;;;;24.80;11.57;;;;;;;13.89;84.78;102120.59;10136308;28;20046;-68
2021/09/03 05:15:43;;;;;;;24.58;12.25;;;;;;;14.00;84.60;102116.50;10160184;28;20121;-68
2021/09/03 05:20:40;;;;;;;24.60;11.50;;;;;;;14.00;84.69;102113.75;10159493;28;20125;-70
2021/09/03 05:25:36;;;;;;;24.52;11.48;;;;;;;14.05;84.62;102118.34;10158577;28;20077;-71
2021/09/03 05:30:33;;;;;;;28.80;12.32;;;;;;;14.09;85.19;102125.66;10158831;28;20305;-70
2021/09/03 05:35:30;;;;;;;22.95;11.68;;;;;;;14.15;84.78;102117.31;10153595;28;20451;-70
2021/09/03 05:40:27;;;;;;;25.35;12.25;;;;;;;14.21;84.96;102105.88;10155056;28;20038;-70
2021/09/03 05:45:23;;;;;;;23.92;11.70;;;;;;;14.18;84.96;102105.69;10155514;28;20100;-71
2021/09/03 05:50:20;;;;;;;24.58;11.80;;;;;;;14.23;84.92;102111.09;10153201;28;20355;-67
2021/09/03 05:55:17;;;;;;;26.27;10.77;;;;;;;14.21;85.78;102105.88;10156357;28;20046;-68
2021/09/03 06:00:14;;;;;;;28.30;11.10;;;;;;;14.30;85.34;102097.72;10154851;28;20046;-66
2021/09/03 06:05:10;;;;;;;25.10;10.90;;;;;;;14.40;85.03;102100.22;10145416;28;20090;-67
2021/09/03 06:10:07;;;;;;;20.58;9.70;;;;;;;14.43;84.74;102094.09;10143680;28;20050;-66
2021/09/03 06:15:06;;;;;;;21.13;10.30;;;;;;;14.46;84.81;102100.94;10142473;28;20096;-67
2021/09/03 06:20:06;;;;;;;27.48;10.32;;;;;;;14.55;84.81;102099.13;10137993;28;20053;-67
2021/09/03 06:25:03;;;;;;;23.50;10.75;;;;;;;14.59;84.52;102096.53;10144963;28;20073;-68
2021/09/03 06:30:01;;;;;;;24.50;9.23;;;;;;;14.56;84.49;102083.41;10138969;28;20568;-67
2021/09/03 06:35:00;;;;;;;30.33;10.45;;;;;;;14.63;84.57;102089.28;10148365;28;20108;-67
2021/09/03 06:39:58;;;;;;;27.10;9.60;;;;;;;14.64;84.13;102091.72;10144375;28;20050;-68
2021/09/03 06:44:54;;;;;;;30.98;10.90;;;;;;;14.65;84.14;102084.28;10142790;28;20117;-67
2021/09/03 06:49:51;;;;;;;26.88;9.27;;;;;;;14.71;83.96;102085.78;10146696;28;20142;-67
2021/09/03 06:54:49;;;;;;;23.85;9.57;;;;;;;14.79;84.05;102093.28;10141153;28;20066;-67
2021/09/03 06:59:45;;;;;;;25.75;9.90;;;;;;;14.74;83.52;102090.69;10144745;28;20116;-68
2021/09/03 07:04:42;;;;;;;24.45;10.40;;;;;;;14.68;84.05;102086.41;10138345;28;20100;-68
2021/09/03 07:09:38;;;;;;;27.70;12.68;;;;;;;14.70;83.89;102081.41;10137762;28;20054;-66
2021/09/03 07:14:35;;;;;;;25.95;11.27;;;;;;;14.70;84.19;102084.97;10140581;28;20066;-67
2021/09/03 07:19:33;;;;;;;26.27;11.85;;;;;;;14.81;83.80;102073.72;10133844;28;20086;-65
2021/09/03 07:24:30;;;;;;;22.83;11.25;;;;;;;14.82;83.55;102081.66;10140828;28;20042;-66
2021/09/03 07:29:27;;;;;;;23.00;11.93;;;;;;;14.90;83.33;102072.66;10141351;28;20062;-66
2021/09/03 07:34:23;;;;;;;23.88;10.85;;;;;;;15.02;83.02;102071.25;10149676;28;20061;-66
2021/09/03 07:39:21;;;;;;;17.35;10.23;;;;;;;15.07;82.03;102076.63;10140506;28;20043;-66
2021/09/03 07:44:17;;;;;;;24.95;10.55;;;;;;;15.15;81.34;102078.59;10134870;28;20137;-66
2021/09/03 07:49:14;;;;;;;22.85;11.27;;;;;;;15.02;80.04;102066.56;10127402;28;20047;-66
2021/09/03 07:54:10;;;;;;;17.27;9.20;;;;;;;15.20;80.15;102075.75;10135462;28;20070;-68
2021/09/03 07:59:07;;;;;;;22.02;10.10;;;;;;;15.27;79.30;102070.59;10142639;28;20470;-68
2021/09/03 08:04:04;;;;;;;22.42;9.15;;;;;;;15.23;78.81;102068.78;10144759;28;20053;-67
2021/09/03 08:09:01;;;;;;;17.75;8.43;;;;;;;15.35;78.46;102067.03;10139395;28;20129;-67
2021/09/03 08:13:58;;;;;;;16.55;8.65;;;;;;;15.33;78.34;102058.28;10139855;28;20105;-66
2021/09/03 08:18:54;;;;;;;18.20;9.50;;;;;;;15.49;77.77;102068.88;10141809;28;20104;-68
2021/09/03 08:23:51;;;;;;;22.60;10.73;;;;;;;15.42;77.16;102065.78;10143212;28;20065;-65
2021/09/03 08:28:48;;;;;;;18.40;10.10;;;;;;;15.44;77.39;102075.34;10131864;28;20245;-66
2021/09/03 08:33:44;;;;;;;19.40;9.38;;;;;;;15.75;77.23;102069.81;10140025;28;20030;-68
2021/09/03 08:38:41;;;;;;;18.60;9.57;;;;;;;15.76;76.20;102065.94;10134237;28;20133;-68
2021/09/03 08:43:37;;;;;;;22.20;10.68;;;;;;;15.82;75.95;102063.03;10137573;28;20085;-67
2021/09/03 08:48:35;;;;;;;21.13;10.48;;;;;;;15.89;75.90;102063.34;10132098;28;20536;-70
2021/09/03 08:53:31;;;;;;;20.65;11.40;;;;;;;15.99;75.42;102047.31;10141899;28;20081;-68
2021/09/03 08:58:28;;;;;;;20.85;9.50;;;;;;;15.98;74.28;102061.44;10138679;28;20050;-70
2021/09/03 09:03:33;;;;;;;18.45;8.63;;;;;;;16.07;74.38;102053.97;10145584;28;20038;-66
2021/09/03 09:08:32;;;;;;;17.77;9.07;;;;;;;16.20;74.07;102058.53;10136708;28;20060;-67
2021/09/03 09:13:34;;;;;;;14.02;7.38;;;;;;;16.25;74.07;102059.53;10131302;28;20088;-68
2021/09/03 09:18:48;;;;;;;14.07;7.07;;;;;;;16.39;73.12;102043.63;10136753;28;20062;-68
2021/09/03 09:24:03;;;;;;;19.02;7.07;;;;;;;16.55;73.09;102041.97;10131358;28;20552;-68
2021/09/03 09:29:12;;;;;;;15.50;6.88;;;;;;;16.67;71.93;102044.06;10134997;28;20077;-69
2021/09/03 09:34:23;;;;;;;12.40;4.95;;;;;;;16.81;71.43;102039.19;10131507;28;20170;-68
2021/09/03 09:39:24;;;;;;;17.55;5.63;;;;;;;16.85;71.34;102044.91;10126863;28;20073;-69
2021/09/03 09:44:33;;;;;;;17.63;5.68;;;;;;;16.73;71.02;102041.94;10132048;28;20066;-67
2021/09/03 09:49:30;;;;;;;17.73;6.25;;;;;;;16.82;71.30;102040.00;10145526;28;20081;-69
2021/09/03 09:54:27;;;;;;;14.45;5.70;;;;;;;16.96;72.34;102042.56;10143694;28;20138;-69
2021/09/03 09:59:25;;;;;;;25.30;7.18;;;;;;;17.01;70.71;102037.69;10150850;28;20050;-70
2021/09/03 10:04:24;;;;;;;12.95;6.13;;;;;;;17.19;70.13;102032.91;10148448;28;20512;-69
2021/09/03 10:09:23;;;;;;;15.52;6.05;;;;;;;17.42;69.51;102025.16;10151463;28;20058;-69
2021/09/03 10:14:26;;;;;;;16.05;6.15;;;;;;;17.71;68.29;102026.34;10145717;28;20042;-68
2021/09/03 10:19:25;;;;;;;14.35;7.07;;;;;;;18.16;66.13;102020.19;10139878;28;20047;-68
2021/09/03 10:24:26;;;;;;;12.93;6.60;;;;;;;18.82;64.61;102018.59;10140337;28;20137;-69
2021/09/03 10:29:41;;;;;;;12.93;6.45;;;;;;;19.73;62.34;102013.72;10146716;28;20054;-69
2021/09/03 10:34:40;;;;;;;17.27;7.20;;;;;;;20.00;60.72;102024.41;10146259;28;20132;-68
2021/09/03 10:40:07;;;;;;;15.95;7.40;;;;;;;20.01;60.20;102010.19;10145849;28;20066;-69
2021/09/03 10:45:08;;;;;;;13.43;7.15;;;;;;;20.22;60.23;102004.47;10137213;28;20043;-69
2021/09/03 10:50:11;;;;;;;15.10;7.70;;;;;;;20.66;58.13;102015.66;10137932;28;20058;-69
2021/09/03 10:55:08;;;;;;;16.55;8.63;;;;;;;20.85;56.71;102005.81;10145357;28;20525;-69
2021/09/03 11:00:16;;;;;;;16.92;9.57;;;;;;;21.34;55.93;102008.22;10149163;28;20042;-69
2021/09/03 11:05:13;;;;;;;20.00;10.73;;;;;;;20.36;57.46;101990.97;10144736;28;20416;-68
2021/09/03 11:10:18;;;;;;;22.67;11.70;;;;;;;20.65;57.65;101997.34;10148643;28;20719;-69
2021/09/03 11:15:15;;;;;;;20.50;11.73;;;;;;;20.56;57.43;101985.59;10147668;28;20448;-70
2021/09/03 11:20:14;;;;;;;21.35;12.30;;;;;;;19.94;59.53;101985.81;10147102;28;20514;-68
2021/09/03 11:25:11;;;;;;;22.95;13.90;;;;;;;19.91;59.52;101986.53;10140984;28;20081;-69
2021/09/03 11:30:12;;;;;;;22.48;12.80;;;;;;;19.80;60.10;101988.16;10144870;28;20046;-69
2021/09/03 11:35:12;;;;;;;23.90;12.73;;;;;;;20.07;60.43;101977.44;10135578;28;20075;-69
2021/09/03 11:40:15;;;;;;;23.42;13.13;;;;;;;19.91;60.58;101980.97;10129436;28;20054;-68
2021/09/03 11:45:18;;;;;;;25.88;13.50;;;;;;;19.95;60.02;101968.00;10135849;28;20105;-68
2021/09/03 11:50:18;;;;;;;19.63;12.60;;;;;;;19.86;60.28;101972.88;10133043;28;20100;-69
2021/09/03 11:55:17;;;;;;;21.00;12.98;;;;;;;20.00;60.28;101969.69;10142441;28;20097;-68
2021/09/03 12:00:17;;;;;;;22.83;12.07;;;;;;;19.92;60.22;101971.47;10134854;28;20042;-67
2021/09/03 12:05:14;;;;;;;23.15;12.50;;;;;;;20.09;59.49;101966.78;10141751;28;20070;-69
2021/09/03 12:10:11;;;;;;;17.92;12.10;;;;;;;20.23;59.67;101974.72;10132131;28;20050;-69
2021/09/03 12:15:08;;;;;;;23.45;11.82;;;;;;;20.66;58.23;101970.38;10143924;28;20622;-68
2021/09/03 12:20:17;;;;;;;24.20;12.40;;;;;;;21.37;56.35;101954.63;10147886;28;20077;-69
2021/09/03 12:25:13;;;;;;;22.02;11.63;;;;;;;21.52;54.86;101956.63;10133192;28;20468;-68
2021/09/03 12:30:14;;;;;;;16.73;10.73;;;;;;;21.90;54.04;101960.63;10139550;28;20467;-68
2021/09/03 12:35:10;;;;;;;22.10;11.93;;;;;;;22.13;54.16;101951.53;10129205;28;20149;-70
2021/09/03 12:40:08;;;;;;;20.55;11.07;;;;;;;21.66;53.32;101966.47;10127186;28;20046;-67
2021/09/03 12:45:06;;;;;;;18.80;12.55;;;;;;;21.53;54.28;101963.00;10136398;28;20070;-68
2021/09/03 12:50:13;;;;;;;24.48;12.27;;;;;;;21.70;54.21;101959.81;10138895;28;20421;-68
2021/09/03 12:55:09;;;;;;;19.88;10.82;;;;;;;21.97;53.62;101954.41;10133172;28;20527;-67
2021/09/03 13:00:07;;;;;;;21.48;12.40;;;;;;;21.30;54.65;101960.03;10144909;28;20077;-67
2021/09/03 13:05:04;;;;;;;22.65;12.25;;;;;;;21.05;56.42;101957.47;10140820;28;20093;-70
2021/09/03 13:10:01;;;;;;;19.80;11.70;;;;;;;21.05;56.75;101959.44;10138091;28;20485;-67
2021/09/03 13:14:57;;;;;;;20.55;11.60;;;;;;;21.34;56.16;101944.25;10136974;28;20551;-68
2021/09/03 13:19:54;;;;;;;18.33;11.00;;;;;;;21.64;54.68;101936.22;10138086;28;20097;-68
2021/09/03 13:24:50;;;;;;;22.85;11.93;;;;;;;21.27;56.05;101944.09;10140494;28;20511;-68
2021/09/03 13:29:47;;;;;;;18.92;11.13;;;;;;;21.38;55.60;101940.38;10149403;28;20034;-68
2021/09/03 13:34:43;;;;;;;21.67;12.18;;;;;;;21.54;56.02;101920.91;10129689;28;20100;-68
2021/09/03 13:39:41;;;;;;;20.75;10.98;;;;;;;22.00;55.42;101918.28;10149107;28;20050;-67
2021/09/03 13:44:37;;;;;;;24.85;11.70;;;;;;;21.89;54.38;101911.69;10149605;28;20070;-68
2021/09/03 13:49:34;;;;;;;19.00;10.20;;;;;;;21.73;53.63;101922.09;10151209;28;20051;-68
2021/09/03 13:54:30;;;;;;;19.33;10.85;;;;;;;21.78;54.70;101907.88;10148776;28;20045;-67
2021/09/03 13:59:27;;;;;;;23.10;10.93;;;;;;;21.35;55.95;101906.91;10149964;28;20149;-67
2021/09/03 14:04:24;;;;;;;14.73;10.23;;;;;;;21.54;55.93;101898.63;10149231;28;20094;-67
2021/09/03 14:09:23;;;;;;;17.35;9.63;;;;;;;21.26;57.05;101904.34;10136250;28;20073;-67
2021/09/03 14:14:20;;;;;;;22.20;10.45;;;;;;;21.21;57.19;101894.31;10140733;28;20084;-68
2021/09/03 14:19:16;;;;;;;20.67;10.00;;;;;;;21.20;58.36;101889.91;10138373;28;20527;-68
2021/09/03 14:24:13;;;;;;;20.90;8.38;;;;;;;21.13;57.94;101884.19;10139775;28;20096;-68
2021/09/03 14:29:10;;;;;;;17.50;9.70;;;;;;;20.59;59.65;101890.41;10136817;28;20141;-67
2021/09/03 14:34:06;;;;;;;16.70;9.55;;;;;;;20.55;59.75;101883.94;10143196;28;20112;-67
2021/09/03 14:39:04;;;;;;;20.40;10.48;;;;;;;20.44;59.94;101896.72;10148103;28;20078;-69
2021/09/03 14:44:00;;;;;;;16.67;9.50;;;;;;;20.31;60.75;101885.69;10135276;28;20046;-69
2021/09/03 14:48:57;;;;;;;17.48;8.55;;;;;;;20.45;60.74;101871.38;10147935;28;20038;-69
2021/09/03 14:53:53;;;;;;;18.50;9.20;;;;;;;20.47;60.67;101874.63;10138924;28;20047;-69
2021/09/03 14:58:50;;;;;;;16.90;7.68;;;;;;;20.59;60.32;101876.53;10136712;28;20157;-69
2021/09/03 15:03:46;;;;;;;17.45;7.65;;;;;;;20.59;59.94;101871.78;10148532;28;20135;-68
2021/09/03 15:08:43;;;;;;;19.52;7.35;;;;;;;20.63;58.83;101871.84;10142774;28;20053;-69
2021/09/03 15:13:40;;;;;;;18.40;7.32;;;;;;;20.57;59.63;101867.75;10148757;28;20124;-68
2021/09/03 15:18:36;;;;;;;14.50;6.28;;;;;;;20.53;59.57;101866.81;10132442;28;20108;-69
2021/09/03 15:23:33;;;;;;;15.00;6.07;;;;;;;20.53;58.03;101864.03;10143979;28;20512;-69
2021/09/03 15:28:30;;;;;;;14.88;5.97;;;;;;;20.62;58.77;101859.13;10132370;28;20054;-68
2021/09/03 15:33:26;;;;;;;12.60;5.38;;;;;;;20.42;58.64;101860.16;10143078;28;20043;-69
2021/09/03 15:38:23;;;;;;;17.27;6.43;;;;;;;20.55;58.18;101847.81;10141851;28;20435;-68
2021/09/03 15:43:19;;;;;;;14.60;5.63;;;;;;;20.43;59.29;101861.78;10142326;28;20078;-68
2021/09/03 15:48:16;;;;;;;12.77;5.43;;;;;;;20.45;59.21;101860.28;10141131;28;20038;-67
2021/09/03 15:53:14;;;;;;;15.63;5.50;;;;;;;20.51;59.21;101853.25;10143722;28;20070;-67
2021/09/03 15:58:11;;;;;;;17.52;7.22;;;;;;;20.28;59.85;101850.28;10139707;28;20643;-67
2021/09/03 16:03:08;;;;;;;13.93;5.57;;;;;;;20.16;61.04;101844.81;10141523;28;20076;-67
2021/09/03 16:08:05;;;;;;;16.48;6.85;;;;;;;20.21;60.33;101839.00;10142138;28;20097;-67
2021/09/03 16:13:01;;;;;;;15.80;6.85;;;;;;;20.07;60.43;101833.88;10146377;28;20500;-67
2021/09/03 16:17:58;;;;;;;16.35;7.13;;;;;;;19.92;60.97;101832.69;10144463;28;20061;-67
2021/09/03 16:22:54;;;;;;;20.75;10.32;;;;;;;19.83;61.19;101825.69;10125069;28;20158;-68
2021/09/03 16:27:51;;;;;;;16.20;6.18;;;;;;;19.92;60.95;101826.34;10141556;28;20133;-68
2021/09/03 16:32:47;;;;;;;17.25;6.25;;;;;;;19.83;61.15;101826.50;10137216;28;20138;-66
2021/09/03 16:37:44;;;;;;;17.30;5.93;;;;;;;19.76;61.30;101818.78;10142092;28;20058;-65
2021/09/03 16:42:40;;;;;;;18.70;6.28;;;;;;;19.37;62.21;101823.16;10132914;28;20141;-67
2021/09/03 16:47:37;;;;;;;20.92;6.15;;;;;;;19.23;62.33;101822.75;10145110;28;20070;-68
2021/09/03 16:52:34;;;;;;;12.85;5.03;;;;;;;19.13;62.68;101819.31;10138634;28;20058;-68
2021/09/03 16:57:30;;;;;;;15.15;5.15;;;;;;;19.01;63.11;101805.47;10139953;28;20054;-66
2021/09/03 17:02:27;;;;;;;13.43;5.45;;;;;;;18.99;63.35;101823.63;10141356;28;20080;-68
2021/09/03 17:07:24;;;;;;;14.30;5.35;;;;;;;18.74;63.38;101822.78;10142183;28;20060;-67
2021/09/03 17:12:20;;;;;;;10.57;4.20;;;;;;;18.48;64.34;101823.94;10140482;28;20077;-66
2021/09/03 17:17:17;;;;;;;16.17;4.93;;;;;;;18.34;64.46;101826.25;10142702;28;20134;-69
2021/09/03 17:22:14;;;;;;;17.55;4.30;;;;;;;18.18;65.63;101829.66;10136418;28;20128;-65
2021/09/03 17:27:10;;;;;;;14.35;5.63;;;;;;;17.86;66.61;101823.78;10138719;28;20599;-68
2021/09/03 17:32:09;;;;;;;13.00;4.97;;;;;;;17.79;67.12;101826.28;10141120;28;20049;-67
2021/09/03 17:37:06;;;;;;;13.85;4.78;;;;;;;17.72;67.53;101828.00;10121570;28;20074;-67
2021/09/03 17:42:03;;;;;;;17.75;4.68;;;;;;;17.74;67.55;101832.03;10139811;28;20046;-67
2021/09/03 17:47:00;;;;;;;19.92;5.15;;;;;;;17.68;67.77;101838.91;10144267;28;20074;-66
2021/09/03 17:51:57;;;;;;;14.32;6.25;;;;;;;17.34;68.72;101840.03;10142186;28;20129;-67
2021/09/03 17:56:53;;;;;;;17.85;5.18;;;;;;;17.29;68.92;101838.28;10143601;28;20042;-68
2021/09/03 18:01:50;;;;;;;9.93;4.07;;;;;;;17.14;69.65;101828.59;10140458;28;20109;-66
2021/09/03 18:06:47;;;;;;;22.48;5.72;;;;;;;16.87;70.77;101821.59;10126245;28;20432;-65
2021/09/03 18:11:44;;;;;;;17.05;5.25;;;;;;;16.77;71.25;101819.22;10149712;28;20844;-66
2021/09/03 18:16:40;;;;;;;15.02;4.95;;;;;;;16.80;71.10;101821.31;10146387;28;20073;-67
2021/09/03 18:21:37;;;;;;;18.77;5.85;;;;;;;16.82;71.00;101819.03;10143187;28;21375;-68
2021/09/03 18:26:33;;;;;;;14.52;5.32;;;;;;;16.66;71.51;101826.25;10143437;28;20697;-68
2021/09/03 18:31:30;;;;;;;17.10;5.20;;;;;;;16.64;71.45;101834.88;10142242;28;20046;-69
2021/09/03 18:36:26;;;;;;;22.75;6.20;;;;;;;16.53;71.85;101823.41;10140279;28;20082;-69
2021/09/03 18:41:23;;;;;;;18.85;7.45;;;;;;;16.54;72.04;101818.66;10135975;28;20054;-68
2021/09/03 18:46:22;;;;;;;14.35;5.53;;;;;;;16.52;71.95;101827.28;10143834;28;20109;-68
2021/09/03 18:51:18;;;;;;;19.67;7.38;;;;;;;16.48;72.06;101820.81;10140304;28;20081;-66
2021/09/03 18:56:15;;;;;;;16.27;6.18;;;;;;;16.54;72.28;101821.44;10123976;28;20142;-69
2021/09/03 19:01:11;;;;;;;16.10;7.25;;;;;;;16.46;72.18;101823.09;10125988;28;20077;-67
2021/09/03 19:06:08;;;;;;;17.90;7.25;;;;;;;16.49;71.11;101827.94;10138093;28;20057;-69
2021/09/03 19:11:05;;;;;;;18.02;8.70;;;;;;;16.40;70.69;101827.16;10142862;28;20109;-67
2021/09/03 19:16:02;;;;;;;16.02;7.20;;;;;;;16.44;70.74;101841.13;10134957;28;20046;-67
2021/09/03 19:20:58;;;;;;;21.02;6.65;;;;;;;16.35;70.42;101846.69;10138941;28;20077;-69
2021/09/03 19:25:55;;;;;;;15.52;6.60;;;;;;;16.42;70.05;101839.50;10136905;28;20038;-69
2021/09/03 19:30:51;;;;;;;21.70;7.45;;;;;;;16.41;70.34;101850.88;10125312;28;20042;-68
2021/09/03 19:35:48;;;;;;;15.40;5.90;;;;;;;16.22;70.58;101851.25;10126397;28;20064;-68
2021/09/03 19:40:44;;;;;;;11.75;6.03;;;;;;;16.17;70.85;101856.94;10134169;28;20058;-67
2021/09/03 19:45:41;;;;;;;11.35;5.63;;;;;;;16.20;70.81;101870.91;10135810;28;20169;-68
2021/09/03 19:50:37;;;;;;;12.38;5.95;;;;;;;16.16;70.76;101864.41;10139876;28;20129;-69
2021/09/03 19:55:34;;;;;;;15.10;5.32;;;;;;;16.25;70.23;101863.59;10124105;28;20085;-67
2021/09/03 20:00:31;;;;;;;11.02;5.82;;;;;;;16.23;70.38;101868.63;10134315;28;20406;-65
2021/09/03 20:05:27;;;;;;;14.95;6.00;;;;;;;16.07;70.48;101871.91;10130593;28;20073;-67
2021/09/03 20:10:24;;;;;;;14.18;6.93;;;;;;;15.99;71.04;101867.22;10134005;28;20132;-69
2021/09/03 20:15:20;;;;;;;11.10;5.13;;;;;;;15.93;70.83;101876.78;10130243;28;20094;-67
2021/09/03 20:20:17;;;;;;;16.85;6.15;;;;;;;15.73;72.03;101873.56;10138022;28;20042;-69
2021/09/03 20:25:13;;;;;;;13.75;4.65;;;;;;;15.78;71.47;101878.91;10128293;28;20130;-69
2021/09/03 20:30:10;;;;;;;16.73;6.13;;;;;;;15.73;71.19;101884.59;10121571;28;20579;-66
2021/09/03 20:35:07;;;;;;;14.52;6.03;;;;;;;15.64;71.31;101881.00;10130645;28;20101;-68
2021/09/03 20:40:04;;;;;;;12.75;4.00;;;;;;;15.61;71.71;101881.63;10134562;28;20054;-68
2021/09/03 20:45:03;;;;;;;10.50;3.90;;;;;;;15.50;72.10;101872.06;10140953;28;20747;-69
2021/09/03 20:49:59;;;;;;;15.00;4.13;;;;;;;15.41;72.25;101873.97;10139632;28;20056;-69
2021/09/03 20:54:56;;;;;;;12.23;3.70;;;;;;;15.30;72.77;101877.06;10128858;28;20050;-68
2021/09/03 20:59:55;;;;;;;19.00;5.70;;;;;;;15.27;73.01;101883.22;10125579;28;20456;-65
2021/09/03 21:04:52;;;;;;;16.75;5.45;;;;;;;15.20;72.72;101874.63;10132751;28;20050;-68
2021/09/03 21:09:49;;;;;;;14.25;4.20;;;;;;;15.16;72.57;101876.41;10137941;28;20397;-70
2021/09/03 21:14:46;;;;;;;14.25;4.85;;;;;;;15.07;73.09;101872.81;10136537;28;20133;-68
2021/09/03 21:19:42;;;;;;;14.52;5.03;;;;;;;14.94;73.80;101871.78;10128063;28;20048;-68
2021/09/03 21:24:38;;;;;;;17.27;5.50;;;;;;;14.93;74.28;101879.25;10140967;28;20081;-69
2021/09/03 21:29:35;;;;;;;12.48;4.40;;;;;;;14.84;74.56;101883.91;10138432;28;20074;-68
2021/09/03 21:34:32;;;;;;;14.82;4.75;;;;;;;14.83;74.56;101882.28;10137641;28;20050;-66
2021/09/03 21:39:28;;;;;;;13.27;4.32;;;;;;;14.80;74.91;101880.16;10139098;28;20129;-68
2021/09/03 21:44:25;;;;;;;11.60;4.70;;;;;;;14.72;74.52;101883.69;10135597;28;20070;-68
2021/09/03 21:49:22;;;;;;;15.00;5.15;;;;;;;14.61;74.76;101872.16;10132223;28;20587;-67
2021/09/03 21:54:18;;;;;;;15.38;5.65;;;;;;;14.49;75.63;101875.47;10146446;28;20074;-67
2021/09/03 21:59:15;;;;;;;17.08;4.93;;;;;;;14.47;75.35;101872.22;10140787;28;20046;-68
2021/09/03 22:04:11;;;;;;;13.10;4.40;;;;;;;14.48;75.54;101873.84;10151100;28;20108;-69
2021/09/03 22:09:08;;;;;;;13.05;3.80;;;;;;;14.36;75.90;101870.84;10142194;28;20147;-68
2021/09/03 22:14:09;;;;;;;15.57;4.35;;;;;;;14.41;75.88;101873.50;10124672;28;20059;-68
2021/09/03 22:19:06;;;;;;;16.73;4.07;;;;;;;14.37;75.81;101872.50;10136056;28;20067;-68
2021/09/03 22:24:02;;;;;;;10.98;3.63;;;;;;;14.33;76.15;101866.00;10129861;28;20428;-67